Weather observations for the past three days for
Hamilton Municipal Airport
Imperial (Metric)
Date Time (cdt) Wind (mph) Vis. (mi.) Weather Sky Cond. Temperature (ºF) Relative Humidity Wind Chill (°F) Heat Index (°F) Pressure Precipitation (in)
Air Dwpt 6 hour altimeter (in) sea level (mb) 1 hr 3 hr 6 hr
Max. Min.
05 22:55 N 9 10.00 Overcast SCT028 BKN038 OVC046 71.6 64.4 78% 29.79 0.0
05 22:35 N 9 9.00 Mostly Cloudy SCT026 SCT036 BKN047 73.4 66.2 78% 29.78 0.0
05 22:15 N 12 G 20 9.00 Partly Cloudy SCT026 SCT047 75.2 68 78% 76 29.77 0.0
05 21:35 S 9 10.00 Fair CLR 75.2 71.6 89% 75 29.72 0.0
05 21:15 S 10 10.00 Fair CLR 75.2 71.6 89% 75 29.71 0.0
05 20:55 S 10 10.00 Fair CLR 77 71.6 83% 78 29.7 0.0
05 20:35 S 8 10.00 Fair CLR 77 71.6 83% 78 29.69 0.0
05 20:15 S 8 10.00 Fair CLR 78.8 71.6 79% 82 29.69 0.0
05 19:55 S 8 10.00 Fair CLR 80.6 71.6 74% 85 29.68 0.0
05 19:35 S 9 10.00 Fair CLR 82.4 71.6 70% 87 29.68 0.0
05 19:15 S 10 10.00 Fair CLR 84.2 71.6 66% 90 29.69 0.0
05 18:55 S 12 10.00 Fair CLR 84.2 71.6 90 82.2 66% 90 29.69 0.0
05 18:35 S 10 10.00 Fair CLR 86 71.6 62% 92 29.68 0.0
05 18:15 S 8 10.00 Fair CLR 87.8 62.6 43% 88 29.68 0.0
05 17:55 SW 7 8.00 Fair CLR 87.8 62.6 43% 88 29.68 0.0
05 17:35 SW 9 9.00 Fair CLR 87.8 62.6 43% 88 29.68 0.0
05 17:15 SW 9 9.00 Fair CLR 89.6 66.2 46% 92 29.67 0.0
05 16:55 Vrbl 7 10.00 Fair CLR 89.6 62.6 41% 90 29.68 0.0
05 16:35 SW 8 6.00 Fair with Haze CLR 89.6 64.4 43% 91 29.69 0.0
05 16:15 SW 7 8.00 Fair CLR 89.6 64.4 43% 91 29.68 0.0
05 15:55 SW 7 G 16 9.00 Fair CLR 87.8 64.4 46% 89 29.7 0.0
05 15:35 SW 9 10.00 Fair CLR 89.6 68 49% 93 29.7 0.0
05 15:15 SW 8 10.00 Fair CLR 87.8 66.2 49% 90 29.71 0.0
05 14:35 SW 9 10.00 Fair CLR 87.8 69.8 55% 93 29.72 0.0
05 14:15 SW 14 G 20 10.00 Fair CLR 87.8 69.8 55% 93 29.72 0.0
05 13:55 SW 12 10.00 Fair CLR 86 71.6 62% 92 29.73 0.0
05 13:35 SW 12 G 18 10.00 Fair CLR 84.2 71.6 66% 90 29.74 0.0
05 13:15 S 14 G 18 10.00 Fair CLR 84.2 71.6 66% 90 29.74 0.0
05 12:55 SW 15 G 21 10.00 Fair CLR 84.2 71.6 82.6 65.8 66% 90 29.75 0.0
05 12:35 SW 16 10.00 Fair CLR 82.4 71.6 70% 87 29.75 0.0
05 12:15 SW 17 G 24 10.00 Fair CLR 82.4 71.6 70% 87 29.75 0.0
05 11:55 SW 18 G 23 10.00 Fair CLR 80.6 71.6 74% 85 29.75 0.0
05 11:35 SW 15 G 24 10.00 Fair CLR 80.6 71.6 74% 85 29.75 0.0
05 11:15 SW 15 G 21 10.00 Fair CLR 80.6 71.6 74% 85 29.75 0.0
05 10:55 SW 17 10.00 Fair CLR 78.8 71.6 79% 82 29.75 0.0
05 10:35 SW 16 10.00 Fair CLR 77 69.8 79% 79 29.75 0.0
05 10:15 SW 18 G 26 10.00 Fair CLR 77 69.8 79% 79 29.75 0.0
05 09:55 SW 18 G 26 10.00 A Few Clouds FEW015 75.2 69.8 83% 75 29.75 0.0
05 09:35 SW 21 G 28 10.00 A Few Clouds and Breezy FEW015 73.4 69.8 89% 29.75 0.0
05 09:15 SW 18 G 24 10.00 Mostly Cloudy BKN013 73.4 69.8 89% 29.74 0.0
05 08:55 SW 15 G 23 10.00 Overcast OVC013 71.6 69.8 94% 29.75 0.0
05 08:35 SW 15 G 20 10.00 Mostly Cloudy BKN013 69.8 68 94% 29.74 0.0
05 08:15 S 15 10.00 A Few Clouds FEW013 69.8 68 94% 29.73 0.0
05 07:55 S 15 10.00 Fair CLR 68 68 100% 29.72 0.0
05 07:35 S 13 10.00 Fair CLR 66.2 66.2 100% 29.72 0.0
05 07:15 S 15 10.00 Fair CLR 66.2 66.2 100% 29.71 0.0
05 06:55 S 15 10.00 Fair CLR 66.2 66.2 68.7 66 100% 29.7 0.0
05 06:35 S 15 10.00 Fair CLR 66.2 66.2 100% 29.7 0.0
05 06:15 SW 15 10.00 Fair CLR 66.2 66.2 100% 29.69 0.0
05 05:55 S 15 10.00 A Few Clouds FEW060 66.2 66.2 100% 29.69 0.0
05 05:35 S 15 10.00 A Few Clouds FEW060 66.2 66.2 100% 29.7 0.0
05 05:15 S 15 10.00 Fair CLR 66.2 66.2 100% 29.7 0.0
05 04:55 SW 14 10.00 Fair CLR 66.2 66.2 100% 29.7 0.0
05 04:35 S 15 10.00 Fair CLR 66.2 66.2 100% 29.71 0.0
05 04:15 SW 15 10.00 Fair CLR 68 68 100% 29.71 0.0
05 03:55 S 15 G 23 10.00 Fair CLR 68 68 100% 29.71 0.0
05 03:35 S 15 G 24 10.00 Fair CLR 68 66.2 94% 29.71 0.0
05 03:15 S 17 10.00 Fair CLR 68 66.2 94% 29.72 0.0
05 02:55 S 16 G 23 10.00 Fair CLR 68 66.2 94% 29.71 0.0
05 02:35 S 15 10.00 Fair CLR 68 66.2 94% 29.72 0.0
05 02:15 S 14 10.00 Fair CLR 68 66.2 94% 29.74 0.0
05 01:55 S 14 10.00 Fair CLR 68 66.2 94% 29.74 0.0
05 01:35 S 14 10.00 Fair CLR 68 66.2 94% 29.75 0.0
05 01:15 S 15 10.00 Fair CLR 68 66.2 94% 29.75 0.0
05 00:55 S 10 10.00 Fair CLR 68 66.2 80.1 68.2 94% 29.76 0.0
05 00:35 S 13 10.00 Fair CLR 68 66.2 94% 29.76 0.0
05 00:15 S 13 10.00 Fair CLR 69.8 66.2 88% 29.76 0.0
04 23:55 S 12 10.00 Fair CLR 69.8 66.2 88% 29.76 0.0
04 23:35 S 10 10.00 Fair CLR 69.8 64.4 83% 29.77 0.0
04 23:15 S 10 10.00 Fair CLR 71.6 64.4 78% 29.78 0.0
04 22:55 S 13 10.00 Fair CLR 71.6 64.4 78% 29.77 0.0
04 22:35 S 14 10.00 Fair CLR 71.6 64.4 78% 29.76 0.0
04 22:15 S 13 G 20 10.00 Fair CLR 73.4 64.4 74% 29.76 0.0
04 21:55 S 14 10.00 Fair CLR 73.4 64.4 74% 29.76 0.0
04 21:35 S 15 G 21 10.00 Fair CLR 73.4 64.4 74% 29.76 0.0
04 21:15 S 15 G 22 10.00 Fair CLR 75.2 64.4 69% 77 29.76 0.0
04 20:55 S 14 10.00 Fair CLR 75.2 64.4 69% 77 29.74 0.0
04 20:35 S 17 G 23 10.00 Fair CLR 75.2 64.4 69% 77 29.73 0.0
04 20:15 S 15 10.00 Fair CLR 77 64.4 65% 79 29.73 0.0
04 19:55 S 16 G 22 10.00 Fair CLR 77 64.4 65% 79 29.74 0.0
04 19:35 S 16 10.00 Fair CLR 78.8 64.4 61% 81 29.74 0.0
04 19:15 S 16 G 21 10.00 Fair CLR 78.8 64.4 61% 81 29.75 0.0
04 18:55 S 17 G 24 10.00 Fair CLR 78.8 64.4 83.1 77.2 61% 81 29.75 0.0
04 18:35 S 18 G 26 10.00 Fair CLR 80.6 64.4 58% 82 29.75 0.0
04 18:15 S 17 10.00 Fair CLR 80.6 64.4 58% 82 29.76 0.0
04 17:55 S 16 G 26 10.00 Fair CLR 82.4 64.4 55% 84 29.76 0.0
04 17:35 S 16 G 25 10.00 Fair CLR 82.4 64.4 55% 84 29.77 0.0
04 17:15 S 18 G 25 10.00 Fair CLR 80.6 64.4 58% 82 29.76 0.0
04 16:55 S 18 10.00 Fair CLR 80.6 64.4 58% 82 29.77 0.0
04 16:35 S 18 G 24 10.00 Fair CLR 80.6 64.4 58% 82 29.79 0.0
04 16:15 S 21 G 24 10.00 Fair and Breezy CLR 80.6 64.4 58% 82 29.79 0.0
04 15:55 S 14 G 23 10.00 Fair CLR 80.6 64.4 58% 82 29.81 0.0
04 15:35 S 16 G 25 10.00 Fair CLR 80.6 64.4 58% 82 29.82 0.0
04 15:15 S 20 G 28 10.00 Fair CLR 78.8 64.4 61% 81 29.82 0.0
04 14:55 S 18 G 23 10.00 Fair CLR 78.8 64.4 61% 81 29.84 0.0
04 14:35 S 18 G 25 10.00 Fair CLR 78.8 64.4 61% 81 29.85 0.0
04 14:15 S 17 G 22 10.00 Fair CLR 78.8 64.4 61% 81 29.86 0.0
04 13:55 S 17 G 25 10.00 Fair CLR 78.8 64.4 61% 81 29.86 0.0
04 13:35 S 18 G 24 10.00 Fair CLR 78.8 64.4 61% 81 29.87 0.0
04 13:15 S 20 G 26 10.00 A Few Clouds FEW033 78.8 64.4 61% 81 29.88 0.0
04 12:55 S 18 G 26 10.00 A Few Clouds FEW033 77 62.6 77.7 55 61% 79 29.88 0.0
04 12:35 S 20 G 25 10.00 A Few Clouds FEW033 77 64.4 65% 79 29.89 0.0
04 12:15 S 18 G 26 10.00 A Few Clouds FEW031 77 62.6 61% 79 29.9 0.0
04 11:55 S 20 G 25 10.00 Fair CLR 75.2 62.6 65% 77 29.9 0.0
04 11:35 SW 21 G 26 10.00 A Few Clouds and Breezy FEW028 75.2 62.6 65% 77 29.91 0.0
04 11:15 S 20 G 24 10.00 A Few Clouds FEW028 73.4 62.6 69% 29.92 0.0
04 10:55 SW 22 G 28 10.00 Fair and Breezy CLR 71.6 60.8 69% 29.92 0.0
04 10:35 S 20 G 28 10.00 Fair CLR 71.6 60.8 69% 29.93 0.0
04 10:15 S 18 G 25 10.00 Fair CLR 69.8 60.8 73% 29.93 0.0
04 09:55 S 17 G 25 10.00 A Few Clouds FEW019 68 60.8 78% 29.93 0.0
04 09:35 S 14 G 23 10.00 Partly Cloudy SCT019 66.2 60.8 83% 29.93 0.0
04 09:15 S 17 G 24 10.00 Fair CLR 64.4 59 83% 29.93 0.0
04 08:55 S 21 G 25 10.00 Fair and Breezy CLR 64.4 59 83% 29.93 0.0
04 08:35 S 17 G 23 10.00 Fair CLR 62.6 59 88% 29.93 0.0
04 08:15 S 15 10.00 Fair CLR 62.6 59 88% 29.94 0.0
04 07:55 S 13 10.00 Fair CLR 59 59 100% 29.93 0.0
04 07:35 S 10 10.00 Fair CLR 57.2 57.2 100% 29.93 0.0
04 07:15 S 10 10.00 Fair CLR 55.4 55.4 100% 29.92 0.0
04 06:55 S 9 10.00 Fair CLR 55.4 55.4 60.8 55.2 100% 29.92 0.0
04 06:35 S 10 10.00 Fair CLR 55.4 55.4 100% 29.92 0.0
04 06:15 S 10 10.00 Fair CLR 55.4 55.4 100% 29.92 0.0
04 05:55 S 10 10.00 Fair CLR 55.4 55.4 100% 29.92 0.0
04 05:35 S 10 10.00 Fair CLR 55.4 53.6 94% 29.93 0.0
04 05:15 S 10 10.00 Fair CLR 55.4 53.6 94% 29.93 0.0
04 04:55 S 10 10.00 Fair CLR 57.2 53.6 88% 29.94 0.0
04 04:15 S 10 10.00 Fair CLR 57.2 53.6 88% 29.95 0.0
04 03:55 S 10 10.00 Fair CLR 57.2 53.6 88% 29.94 0.0
04 03:35 S 12 10.00 Fair CLR 57.2 53.6 88% 29.95 0.0
04 03:15 S 10 10.00 Fair CLR 59 51.8 77% 29.95 0.0
04 02:55 S 12 10.00 Fair CLR 59 51.8 77% 29.96 0.0
04 02:35 S 13 10.00 Fair CLR 59 50 72% 29.97 0.0
04 02:15 S 16 10.00 Fair CLR 60.8 50 68% 29.96 0.0
04 01:55 S 17 G 22 10.00 Fair CLR 60.8 50 68% 29.97 0.0
04 01:35 S 14 10.00 Fair CLR 59 50 72% 29.98 0.0
04 01:15 S 10 10.00 Fair CLR 57.2 50 77% 29.99 0.0
04 00:55 S 9 10.00 Fair CLR 59 50 73.9 59.2 72% 30 0.0
04 00:35 S 10 10.00 Fair CLR 60.8 48.2 63% 30 0.0
04 00:15 S 10 10.00 Fair CLR 60.8 48.2 63% 30.01 0.0
03 23:55 S 10 10.00 Fair CLR 62.6 48.2 60% 30.01 0.0
03 23:35 S 12 10.00 Fair CLR 60.8 48.2 63% 30.01 0.0
03 23:15 S 8 10.00 Fair CLR 59 48.2 68% 30.02 0.0
03 22:55 S 9 10.00 Fair CLR 60.8 48.2 63% 30.03 0.0
03 22:35 S 8 10.00 Fair CLR 60.8 48.2 63% 30.02 0.0
03 22:15 S 10 10.00 Fair CLR 60.8 48.2 63% 30.02 0.0
03 21:55 S 9 10.00 Fair CLR 60.8 48.2 63% 30.02 0.0
03 21:35 S 8 10.00 Fair CLR 62.6 48.2 60% 30.02 0.0
03 21:15 S 8 10.00 Fair CLR 62.6 50 64% 30.02 0.0
03 20:55 S 7 10.00 Fair CLR 64.4 48.2 56% 30.02 0.0
03 20:35 S 7 10.00 Fair CLR 64.4 48.2 56% 30.02 0.0
03 20:15 S 7 10.00 Fair CLR 66.2 48.2 52% 30.01 0.0
03 19:55 S 8 10.00 Fair CLR 68 46.4 46% 30.01 0.0
03 19:35 S 9 10.00 Fair CLR 69.8 46.4 43% 30.01 0.0
03 19:15 S 10 10.00 Fair CLR 71.6 46.4 41% 30.01 0.0
03 18:55 S 10 10.00 Fair CLR 73.4 44.6 79 73.8 36% 30.02 0.0
03 18:35 S 10 G 16 10.00 Fair CLR 73.4 46.4 38% 30.02 0.0
03 18:15 S 14 10.00 Fair CLR 75.2 44.6 34% 77 30.02 0.0
03 17:55 S 13 10.00 Fair CLR 73.4 44.6 36% 30.03 0.0
03 17:35 S 14 10.00 Fair CLR 77 44.6 32% 78 30.03 0.0
03 17:15 S 13 G 21 10.00 Fair CLR 78.8 46.4 32% 79 30.04 0.0
03 16:55 S 14 G 23 10.00 Fair CLR 77 44.6 32% 78 30.04 0.0
03 16:35 S 15 G 21 10.00 Fair CLR 78.8 42.8 28% 78 30.05 0.0
03 16:15 SW 16 G 21 9.00 Fair CLR 78.8 44.6 30% 79 30.07 0.0
03 15:55 S 15 10.00 Fair CLR 78.8 42.8 28% 78 30.08 0.0
03 15:35 S 12 G 21 10.00 Fair CLR 78.8 42.8 28% 78 30.09 0.0
03 15:15 S 12 G 21 10.00 Fair CLR 78.8 41 26% 78 30.1 0.0
03 14:55 S 9 G 23 10.00 Fair CLR 77 39.2 26% 77 30.11 0.0
03 14:35 S 16 10.00 Fair CLR 77 42.8 30% 78 30.12 0.0
03 14:15 S 12 G 18 10.00 Fair CLR 77 42.8 30% 78 30.12 0.0
03 13:35 SW 12 G 17 10.00 Fair CLR 77 46.4 34% 78 30.14 0.0
03 13:15 S 10 G 18 10.00 Fair CLR 77 44.6 32% 78 30.15 0.0
03 12:55 S 10 G 22 10.00 Fair CLR 77 42.8 76.5 48.9 30% 78 30.17 0.0
03 12:35 SW 12 10.00 Fair CLR 75.2 44.6 34% 77 30.17 0.0
03 12:15 W 10 G 17 10.00 Fair CLR 75.2 46.4 36% 77 30.18 0.0
03 11:55 SW 12 G 18 10.00 Fair CLR 75.2 46.4 36% 77 30.19 0.0
03 11:35 SW 13 9.00 Fair CLR 73.4 46.4 38% 30.2 0.0
03 11:15 W 14 1.50 Light Rain Haze CLR 73.4 48.2 41% 30.2 0.0
03 10:55 SW 15 G 21 8.00 Fair CLR 71.6 48.2 44% 30.21 0.0
03 10:35 SW 15 G 20 3.00 Light Rain Haze CLR 71.6 48.2 44% 30.21 0.0
03 10:15 SW 13 1.75 Light Rain Haze CLR 69.8 50 50% 30.21 0.0
03 09:55 SW 16 7.00 Fair with Haze CLR 68 50 53% 30.21 0.0
03 09:35 SW 15 8.00 Fair CLR 66.2 50 56% 30.2 0.0
03 09:15 SW 16 8.00 Fair CLR 64.4 51.8 64% 30.2 0.0
03 08:55 SW 12 7.00 Light Rain Haze CLR 62.6 51.8 68% 30.19 0.0
03 08:35 SW 10 4.00 Light Drizzle Haze CLR 60.8 51.8 72% 30.19 0.0
03 08:15 SW 9 8.00 Fair CLR 59 51.8 77% 30.19 0.0
03 07:35 SW 7 8.00 Fair CLR 51.8 50 94% 30.18 0.0
03 07:15 SW 9 8.00 Fair CLR 50 48.2 94% 47 30.18 0.0
03 06:55 SW 10 10.00 Fair CLR 50 48.2 54 48 94% 46 30.17 0.0
03 06:35 S 7 9.00 Fair CLR 48.2 46.4 94% 46 30.16 0.0
03 06:15 SW 8 9.00 Fair CLR 50 46.4 88% 47 30.16 0.0
03 05:55 SW 7 10.00 Fair CLR 50 48.2 94% 48 30.15 0.0
03 05:35 SW 9 9.00 Fair CLR 50 48.2 94% 47 30.15 0.0
03 05:15 SW 8 6.00 Fog/Mist CLR 50 48.2 94% 47 30.15 0.0
03 04:55 SW 7 9.00 Fair CLR 50 48.2 94% 48 30.16 0.0
03 04:35 SW 9 8.00 Fair CLR 50 48.2 94% 47 30.15 0.0
03 04:15 SW 8 9.00 Fair CLR 50 48.2 94% 47 30.15 0.0
03 03:55 SW 9 8.00 Fair CLR 51.8 48.2 88% 30.15 0.0
03 03:35 SW 8 8.00 Fair CLR 51.8 48.2 88% 30.14 0.0
03 03:15 SW 8 8.00 Fair CLR 51.8 48.2 88% 30.15 0.0
03 02:55 S 8 9.00 Fair CLR 51.8 48.2 88% 30.15 0.0
03 02:35 S 9 10.00 Fair CLR 51.8 50 94% 30.15 0.0
03 02:15 S 8 4.00 Light Drizzle Fog/Mist CLR 51.8 50 94% 30.15 0.0
03 01:55 SW 9 3.00 Light Drizzle Fog/Mist CLR 53.6 50 88% 30.16 0.0
03 01:35 SW 8 4.00 Light Drizzle Fog/Mist CLR 53.6 50 88% 30.16 0.0
03 01:15 SW 9 6.00 Light Drizzle Fog/Mist CLR 51.8 50 94% 30.17 0.0
03 00:55 S 7 6.00 Light Drizzle Fog/Mist CLR 51.8 50 72.5 51.6 94% 30.17 0.0
03 00:35 S 7 8.00 Light Drizzle CLR 51.8 50 94% 30.17 0.0
03 00:15 SW 9 6.00 Light Drizzle Fog/Mist CLR 53.6 50 88% 30.17 0.0
02 23:55 S 7 8.00 Fair CLR 55.4 50 82% 30.17 0.0
Date Time (cdt) Wind (mph) Vis. (mi.) Weather Sky Cond. Air Dwpt Max. Min. Relative Humidity Wind Chill (°F) Heat Index (°F) altimeter (in) sea level (mb) 1 hr 3 hr 6 hr
6 hour
Temperature (ºF) Pressure Precipitation (in)